createdAt,value
2022-12-31T00:01:33.656Z,75.55
2022-12-31T00:04:02.211Z,75.64
2022-12-31T00:06:33.248Z,75.54
2022-12-31T00:09:04.082Z,75.44
2022-12-31T00:11:33.896Z,75.26
2022-12-31T00:14:02.887Z,75.51
2022-12-31T00:16:34.123Z,75.87
2022-12-31T00:19:04.185Z,76.39
2022-12-31T00:21:33.482Z,76.27
2022-12-31T00:24:03.060Z,75.81
2022-12-31T00:26:32.806Z,75.89
2022-12-31T00:29:02.099Z,75.96
2022-12-31T00:31:35.650Z,76.21
2022-12-31T00:34:04.675Z,76.27
2022-12-31T00:36:38.387Z,76.19
2022-12-31T00:39:08.667Z,76.17
2022-12-31T00:41:37.268Z,76.32
2022-12-31T00:44:05.959Z,76.40
2022-12-31T00:49:02.920Z,76.84
2022-12-31T00:51:36.261Z,77.14
2022-12-31T00:54:05.456Z,77.28
2022-12-31T00:56:34.095Z,77.19
2022-12-31T00:59:02.502Z,77.58
2022-12-31T01:01:33.792Z,78.10
2022-12-31T01:04:08.249Z,78.20
2022-12-31T01:06:36.651Z,78.71
2022-12-31T01:09:06.942Z,78.73
2022-12-31T01:11:35.627Z,78.53
2022-12-31T01:14:09.741Z,78.38
2022-12-31T01:16:45.098Z,78.33
2022-12-31T01:19:25.784Z,78.08
2022-12-31T01:21:54.949Z,78.06
2022-12-31T01:24:23.586Z,78.27
2022-12-31T01:26:52.216Z,78.00
2022-12-31T01:29:20.906Z,77.73
2022-12-31T01:31:49.387Z,77.95
2022-12-31T01:34:17.862Z,78.14
2022-12-31T01:36:46.690Z,78.62
2022-12-31T01:39:15.070Z,78.76
2022-12-31T01:41:45.997Z,78.68
2022-12-31T01:44:14.554Z,79.21
2022-12-31T01:46:44.695Z,80.28
2022-12-31T01:49:18.686Z,80.83
2022-12-31T01:51:51.802Z,82.27
2022-12-31T01:54:22.198Z,81.38
2022-12-31T01:56:52.119Z,80.88
2022-12-31T01:59:22.346Z,80.56
2022-12-31T02:01:54.251Z,79.57
2022-12-31T02:04:25.446Z,79.01
2022-12-31T02:07:04.570Z,78.73
2022-12-31T02:09:33.663Z,78.45
2022-12-31T02:12:02.251Z,78.78
2022-12-31T02:14:52.518Z,79.28
2022-12-31T02:17:30.532Z,79.51
2022-12-31T02:20:21.147Z,79.44
2022-12-31T02:23:11.333Z,79.25
2022-12-31T02:25:55.477Z,79.62
2022-12-31T02:28:44.049Z,79.67
2022-12-31T02:31:26.773Z,80.01
2022-12-31T02:34:01.808Z,80.62
2022-12-31T02:36:34.382Z,81.42
2022-12-31T02:39:04.714Z,82.64
2022-12-31T02:41:52.065Z,83.31
2022-12-31T02:44:34.312Z,82.99
2022-12-31T02:47:09.070Z,83.83
2022-12-31T02:49:55.967Z,84.68
2022-12-31T02:52:45.835Z,84.63
2022-12-31T02:55:37.769Z,83.95
2022-12-31T02:58:14.950Z,83.28
2022-12-31T03:01:13.619Z,82.80
2022-12-31T03:03:42.763Z,81.91
2022-12-31T03:06:12.542Z,81.49
2022-12-31T03:09:02.728Z,81.26
2022-12-31T03:11:49.849Z,81.03
2022-12-31T03:14:18.565Z,80.74
2022-12-31T03:16:49.472Z,80.37
2022-12-31T03:19:36.292Z,80.48
2022-12-31T03:22:23.512Z,80.15
2022-12-31T03:25:10.824Z,79.36
2022-12-31T03:27:39.512Z,79.06
2022-12-31T03:30:08.824Z,79.79
2022-12-31T03:32:37.398Z,80.61
2022-12-31T03:35:06.797Z,80.98
2022-12-31T03:37:35.379Z,80.61
2022-12-31T03:40:04.463Z,80.88
2022-12-31T03:42:32.956Z,81.19
2022-12-31T03:45:01.479Z,81.34
2022-12-31T03:47:30.130Z,81.12
2022-12-31T03:49:58.607Z,80.93
2022-12-31T03:52:26.957Z,81.29
2022-12-31T03:54:55.462Z,82.15
2022-12-31T03:57:24.863Z,82.12
2022-12-31T03:59:53.478Z,82.83
2022-12-31T04:02:28.333Z,82.77
2022-12-31T04:04:57.792Z,82.79
2022-12-31T04:07:26.370Z,83.37
2022-12-31T04:09:56.115Z,83.16
2022-12-31T04:12:24.866Z,83.06
2022-12-31T04:14:53.373Z,82.62
2022-12-31T04:17:22.036Z,82.43
2022-12-31T04:19:50.531Z,82.72
2022-12-31T04:22:19.606Z,82.71
2022-12-31T04:24:48.093Z,82.98
2022-12-31T04:27:16.668Z,82.84
2022-12-31T04:29:45.339Z,83.08
2022-12-31T04:32:13.731Z,82.98
2022-12-31T04:34:42.420Z,82.87
2022-12-31T04:37:10.756Z,82.62
2022-12-31T04:39:39.166Z,82.58
2022-12-31T04:42:07.572Z,82.70
2022-12-31T04:44:36.175Z,82.42
2022-12-31T04:47:04.618Z,81.70
2022-12-31T04:49:34.243Z,81.96
2022-12-31T04:52:03.935Z,82.10
2022-12-31T04:54:32.477Z,81.99
2022-12-31T04:57:01.003Z,81.93
2022-12-31T04:59:29.510Z,81.28
2022-12-31T05:01:58.137Z,80.88
2022-12-31T05:04:27.772Z,80.89
2022-12-31T05:06:56.468Z,81.24
2022-12-31T05:09:27.745Z,81.56
2022-12-31T05:11:56.291Z,82.11
2022-12-31T05:14:24.867Z,82.57
2022-12-31T05:16:53.393Z,83.27
2022-12-31T05:19:21.932Z,83.12
2022-12-31T05:22:10.385Z,83.20
2022-12-31T05:24:39.577Z,82.71
2022-12-31T05:27:08.194Z,82.79
2022-12-31T05:29:36.747Z,82.70
2022-12-31T05:32:05.482Z,82.13
2022-12-31T05:34:33.913Z,81.36
2022-12-31T05:37:02.903Z,81.29
2022-12-31T05:39:31.287Z,81.39
2022-12-31T05:42:00.108Z,81.32
2022-12-31T05:44:28.654Z,81.42
2022-12-31T05:46:57.144Z,81.44
2022-12-31T05:49:25.549Z,82.10
2022-12-31T05:51:53.995Z,82.49
2022-12-31T05:54:22.473Z,83.11
2022-12-31T05:56:50.997Z,83.82
2022-12-31T05:59:19.860Z,83.72
2022-12-31T06:01:48.868Z,83.15
2022-12-31T06:04:17.556Z,82.92
2022-12-31T06:06:46.015Z,82.54
2022-12-31T06:09:16.057Z,82.45
2022-12-31T06:11:45.274Z,82.06
2022-12-31T06:14:13.964Z,82.18
2022-12-31T06:16:43.033Z,82.23
2022-12-31T06:19:11.617Z,81.94
2022-12-31T06:21:40.037Z,81.95
2022-12-31T06:24:09.091Z,81.79
2022-12-31T06:26:38.015Z,82.03
2022-12-31T06:29:06.528Z,82.44
2022-12-31T06:31:35.016Z,82.13
2022-12-31T06:34:04.206Z,82.36
2022-12-31T06:36:32.819Z,82.28
2022-12-31T06:39:02.124Z,82.66
2022-12-31T06:41:31.691Z,82.88
2022-12-31T06:44:00.046Z,83.04
2022-12-31T06:46:29.170Z,82.39
2022-12-31T06:48:57.859Z,82.80
2022-12-31T06:51:26.422Z,82.79
2022-12-31T06:53:54.832Z,82.74
2022-12-31T06:56:32.966Z,82.76
2022-12-31T06:59:03.501Z,83.18
2022-12-31T07:01:34.672Z,83.60
2022-12-31T07:04:09.429Z,83.75
2022-12-31T07:06:37.908Z,84.15
2022-12-31T07:09:16.976Z,83.73
2022-12-31T07:12:00.012Z,83.35
2022-12-31T07:14:34.716Z,83.33
2022-12-31T07:17:24.870Z,83.24
2022-12-31T07:19:59.612Z,82.99
2022-12-31T07:22:28.725Z,83.04
2022-12-31T07:24:57.563Z,82.36
2022-12-31T07:28:10.410Z,82.18
2022-12-31T07:30:49.128Z,82.30
2022-12-31T07:33:57.338Z,82.04
2022-12-31T07:36:28.927Z,81.85
2022-12-31T07:39:27.789Z,81.73
2022-12-31T07:42:01.729Z,81.94
2022-12-31T07:44:42.045Z,81.90
2022-12-31T07:47:29.350Z,81.69
2022-12-31T07:49:58.286Z,81.73
2022-12-31T07:52:27.191Z,81.38
2022-12-31T07:54:55.737Z,81.12
2022-12-31T07:57:27.589Z,80.91
2022-12-31T08:00:06.987Z,80.75
2022-12-31T08:02:50.550Z,80.64
2022-12-31T08:05:41.018Z,80.59
2022-12-31T08:08:34.984Z,80.57
2022-12-31T08:11:34.247Z,79.83
2022-12-31T08:14:03.822Z,79.11
2022-12-31T08:16:33.316Z,78.84
2022-12-31T08:19:01.956Z,78.82
2022-12-31T08:21:48.750Z,78.42
2022-12-31T08:24:39.419Z,77.44
2022-12-31T08:27:20.326Z,76.49
2022-12-31T08:30:20.969Z,76.06
2022-12-31T08:33:10.691Z,76.26
2022-12-31T08:36:00.009Z,76.19
2022-12-31T08:38:32.001Z,76.25
2022-12-31T08:41:42.634Z,76.60
2022-12-31T08:44:39.940Z,76.63
2022-12-31T08:47:38.641Z,76.56
2022-12-31T08:50:14.124Z,76.53
2022-12-31T08:52:43.331Z,76.33
2022-12-31T08:55:19.879Z,76.46
2022-12-31T08:58:20.898Z,76.51
2022-12-31T09:00:52.378Z,76.69
2022-12-31T09:03:26.711Z,76.99
2022-12-31T09:06:38.918Z,76.50
2022-12-31T09:09:07.600Z,76.58
2022-12-31T09:12:14.128Z,76.17
2022-12-31T09:14:48.494Z,75.53
2022-12-31T09:17:32.857Z,75.06
2022-12-31T09:20:02.038Z,74.94
2022-12-31T09:22:31.076Z,74.48
2022-12-31T09:25:00.303Z,73.90
2022-12-31T09:27:35.786Z,73.72
2022-12-31T09:30:11.717Z,73.66
2022-12-31T09:32:58.658Z,73.65
2022-12-31T09:35:50.060Z,73.19
2022-12-31T09:38:52.600Z,73.33
2022-12-31T09:41:59.834Z,73.33
2022-12-31T09:44:47.262Z,72.94
2022-12-31T09:47:22.087Z,73.28
2022-12-31T09:50:16.388Z,73.45
2022-12-31T09:53:09.430Z,72.80
2022-12-31T09:55:48.476Z,73.01
2022-12-31T09:58:40.834Z,72.54
2022-12-31T10:01:40.227Z,72.97
2022-12-31T10:04:27.537Z,72.39
2022-12-31T10:06:56.109Z,71.90
2022-12-31T10:09:36.812Z,72.53
2022-12-31T10:12:59.205Z,72.37
2022-12-31T10:16:05.115Z,71.86
2022-12-31T10:19:04.794Z,71.40
2022-12-31T10:21:45.566Z,71.81
2022-12-31T10:24:46.024Z,71.85
2022-12-31T10:27:35.775Z,71.28
2022-12-31T10:30:13.348Z,71.21
2022-12-31T10:32:45.987Z,71.17
2022-12-31T10:35:33.703Z,71.15
2022-12-31T10:38:34.109Z,71.87
2022-12-31T10:41:08.293Z,71.81
2022-12-31T10:43:55.128Z,71.54
2022-12-31T10:46:44.803Z,71.49
2022-12-31T10:49:45.851Z,71.44
2022-12-31T10:52:32.829Z,70.99
2022-12-31T10:55:04.046Z,70.93
2022-12-31T10:58:04.457Z,71.18
2022-12-31T11:01:07.837Z,71.09
2022-12-31T11:04:08.813Z,71.07
2022-12-31T11:07:10.977Z,70.19
2022-12-31T11:10:19.825Z,70.64
2022-12-31T11:13:07.102Z,70.34
2022-12-31T11:15:35.668Z,70.07
2022-12-31T11:18:06.890Z,70.04
2022-12-31T11:21:19.695Z,70.02
2022-12-31T11:24:18.676Z,70.18
2022-12-31T11:27:07.744Z,69.58
2022-12-31T11:30:04.152Z,70.24
2022-12-31T11:32:45.637Z,70.43
2022-12-31T11:35:36.328Z,70.78
2022-12-31T11:38:19.052Z,69.65
2022-12-31T11:40:55.544Z,68.91
2022-12-31T11:43:51.849Z,68.75
2022-12-31T11:46:37.366Z,68.46
2022-12-31T11:49:48.823Z,68.78
2022-12-31T11:52:23.151Z,69.21
2022-12-31T11:54:57.561Z,69.72
2022-12-31T11:57:38.015Z,69.74
2022-12-31T12:00:09.973Z,68.67
2022-12-31T12:02:49.347Z,68.87
2022-12-31T12:05:20.562Z,68.90
2022-12-31T12:07:50.027Z,69.28
2022-12-31T12:10:35.276Z,69.81
2022-12-31T12:13:18.065Z,69.78
2022-12-31T12:15:50.219Z,69.54
2022-12-31T12:18:28.213Z,69.45
2022-12-31T12:21:10.265Z,69.70
2022-12-31T12:23:39.892Z,70.05
2022-12-31T12:26:26.474Z,70.08
2022-12-31T12:28:55.016Z,70.40
2022-12-31T12:31:24.338Z,70.58
2022-12-31T12:33:52.830Z,70.55
2022-12-31T12:36:22.058Z,70.59
2022-12-31T12:39:01.783Z,70.69
2022-12-31T12:41:30.418Z,70.88
2022-12-31T12:44:06.410Z,71.22
2022-12-31T12:46:48.420Z,70.72
2022-12-31T12:49:22.084Z,70.96
2022-12-31T12:52:25.859Z,71.09
2022-12-31T12:55:15.975Z,71.19
2022-12-31T12:58:05.755Z,70.85
2022-12-31T13:00:38.394Z,70.92
2022-12-31T13:03:16.238Z,70.66
2022-12-31T13:05:53.828Z,70.81
2022-12-31T13:09:04.698Z,71.01
2022-12-31T13:11:50.597Z,70.54
2022-12-31T13:14:32.798Z,70.38
2022-12-31T13:17:28.842Z,70.42
2022-12-31T13:20:38.089Z,70.28
2022-12-31T13:23:50.416Z,70.68
2022-12-31T13:26:27.670Z,70.58
2022-12-31T13:28:57.838Z,70.73
2022-12-31T13:31:40.324Z,70.76
2022-12-31T13:34:21.154Z,70.32
2022-12-31T13:36:51.141Z,70.32
2022-12-31T13:39:31.843Z,70.25
2022-12-31T13:42:22.463Z,70.13
2022-12-31T13:45:03.717Z,70.11
2022-12-31T13:47:52.784Z,69.84
2022-12-31T13:50:52.284Z,70.03
2022-12-31T13:53:35.281Z,69.80
2022-12-31T13:56:17.105Z,69.57
2022-12-31T13:58:58.690Z,69.54
2022-12-31T14:01:44.342Z,69.74
2022-12-31T14:04:18.428Z,69.60
2022-12-31T14:06:50.244Z,69.74
2022-12-31T14:09:25.153Z,69.92
2022-12-31T14:11:59.711Z,69.91
2022-12-31T14:15:01.051Z,70.17
2022-12-31T14:18:02.539Z,70.40
2022-12-31T14:20:52.643Z,70.45
2022-12-31T14:23:51.813Z,70.19
2022-12-31T14:26:36.279Z,70.28
2022-12-31T14:29:27.973Z,70.37
2022-12-31T14:32:19.700Z,70.39
2022-12-31T14:35:06.391Z,70.64
2022-12-31T14:38:04.311Z,70.84
2022-12-31T14:40:41.812Z,70.98
2022-12-31T14:43:55.406Z,71.08
2022-12-31T14:46:57.784Z,71.42
2022-12-31T14:49:33.853Z,71.58
2022-12-31T14:52:26.047Z,71.66
2022-12-31T14:55:09.921Z,71.95
2022-12-31T14:58:17.127Z,72.25
2022-12-31T15:00:32.589Z,72.72
2022-12-31T15:03:25.775Z,72.99
2022-12-31T15:06:31.856Z,73.00
2022-12-31T15:09:08.888Z,73.85
2022-12-31T15:11:37.470Z,73.85
2022-12-31T15:14:17.933Z,73.89
2022-12-31T15:16:50.037Z,74.43
2022-12-31T15:19:46.776Z,74.74
2022-12-31T15:22:24.747Z,74.87
2022-12-31T15:24:53.464Z,75.13
2022-12-31T15:27:46.294Z,75.27
2022-12-31T15:30:31.107Z,75.46
2022-12-31T15:33:02.510Z,75.67
2022-12-31T15:35:44.245Z,75.94
2022-12-31T15:38:15.791Z,75.95
2022-12-31T15:40:44.323Z,76.65
2022-12-31T15:43:25.908Z,77.16
2022-12-31T15:45:56.297Z,77.68
2022-12-31T15:48:28.782Z,77.38
2022-12-31T15:51:00.422Z,77.00
2022-12-31T15:53:39.084Z,77.17
2022-12-31T15:56:08.448Z,77.14
2022-12-31T15:58:37.566Z,76.87
2022-12-31T16:01:21.368Z,76.92
2022-12-31T16:03:56.050Z,76.56
2022-12-31T16:06:28.930Z,76.31
2022-12-31T16:08:57.862Z,76.02
2022-12-31T16:11:30.636Z,75.94
2022-12-31T16:13:59.964Z,75.86
2022-12-31T16:16:31.902Z,75.80
2022-12-31T16:19:01.997Z,75.72
2022-12-31T16:21:37.347Z,75.69
2022-12-31T16:24:26.585Z,75.87
2022-12-31T16:26:57.331Z,76.32
2022-12-31T16:29:25.951Z,76.41
2022-12-31T16:31:54.805Z,76.44
2022-12-31T16:34:25.771Z,76.55
2022-12-31T16:37:03.091Z,76.27
2022-12-31T16:39:36.118Z,76.01
2022-12-31T16:42:25.671Z,75.95
2022-12-31T16:44:56.022Z,75.87
2022-12-31T16:47:38.326Z,75.51
2022-12-31T16:50:16.612Z,75.81
2022-12-31T16:52:46.752Z,75.63
2022-12-31T16:55:21.457Z,75.52
2022-12-31T16:57:56.006Z,75.43
2022-12-31T17:00:25.521Z,75.55
2022-12-31T17:03:20.046Z,75.59
2022-12-31T17:05:56.571Z,75.66
2022-12-31T17:08:39.383Z,75.47
2022-12-31T17:11:23.780Z,75.73
2022-12-31T17:14:06.915Z,75.70
2022-12-31T17:16:36.631Z,75.78
2022-12-31T17:19:05.187Z,75.83
2022-12-31T17:21:34.819Z,75.69
2022-12-31T17:24:07.535Z,75.80
2022-12-31T17:26:38.385Z,75.80
2022-12-31T17:29:08.339Z,75.76
2022-12-31T17:31:41.116Z,75.68
2022-12-31T17:34:12.635Z,75.76
2022-12-31T17:36:52.359Z,75.69
2022-12-31T17:39:22.836Z,76.41
2022-12-31T17:41:53.075Z,76.18
2022-12-31T17:44:25.497Z,76.10
2022-12-31T17:46:56.064Z,76.25
2022-12-31T17:49:30.653Z,76.41
2022-12-31T17:51:59.137Z,76.43
2022-12-31T17:54:27.515Z,76.35
2022-12-31T17:56:56.199Z,76.34
2022-12-31T17:59:29.858Z,76.41
2022-12-31T18:02:00.462Z,76.37
2022-12-31T18:04:29.317Z,76.74
2022-12-31T18:06:57.897Z,76.73
2022-12-31T18:09:26.684Z,76.78
2022-12-31T18:11:59.698Z,76.80
2022-12-31T18:14:32.056Z,76.57
2022-12-31T18:17:01.054Z,76.77
2022-12-31T18:20:03.016Z,76.58
2022-12-31T18:22:18.003Z,76.59
2022-12-31T18:24:56.582Z,76.60
2022-12-31T18:27:24.978Z,76.76
2022-12-31T18:29:54.277Z,76.71
2022-12-31T18:32:29.133Z,76.35
2022-12-31T18:34:57.883Z,76.25
2022-12-31T18:37:28.836Z,76.73
2022-12-31T18:39:57.406Z,76.30
2022-12-31T18:42:27.662Z,76.47
2022-12-31T18:44:56.162Z,76.50
2022-12-31T18:47:24.583Z,76.44
2022-12-31T18:49:53.095Z,76.65
2022-12-31T18:52:23.576Z,76.72
2022-12-31T18:54:52.081Z,76.88
2022-12-31T18:57:20.964Z,76.62
2022-12-31T18:59:49.514Z,76.70
2022-12-31T19:02:21.296Z,76.95
2022-12-31T19:04:49.897Z,77.04
2022-12-31T19:07:18.510Z,77.36
2022-12-31T19:09:48.390Z,77.49
2022-12-31T19:12:21.703Z,77.17
2022-12-31T19:14:50.070Z,77.57
2022-12-31T19:17:18.649Z,77.63
2022-12-31T19:19:47.089Z,77.51
2022-12-31T19:22:15.979Z,77.46
2022-12-31T19:24:44.529Z,77.32
2022-12-31T19:27:13.406Z,77.43
2022-12-31T19:29:41.770Z,77.19
2022-12-31T19:32:10.186Z,77.17
2022-12-31T19:34:38.729Z,77.22
2022-12-31T19:37:14.172Z,77.18
2022-12-31T19:39:42.680Z,77.46
2022-12-31T19:42:15.327Z,77.42
2022-12-31T19:44:44.015Z,77.19
2022-12-31T19:47:13.829Z,77.39
2022-12-31T19:49:42.320Z,77.37
2022-12-31T19:52:11.126Z,77.38
2022-12-31T19:54:39.582Z,77.19
2022-12-31T19:57:08.093Z,77.04
2022-12-31T19:59:36.779Z,77.11
2022-12-31T20:02:06.441Z,77.01
2022-12-31T20:04:35.136Z,77.09
2022-12-31T20:07:03.549Z,76.99
2022-12-31T20:09:32.041Z,77.10
2022-12-31T20:12:00.581Z,77.04
2022-12-31T20:14:29.160Z,77.23
2022-12-31T20:16:57.723Z,77.42
2022-12-31T20:19:26.333Z,76.96
2022-12-31T20:21:55.015Z,77.19
2022-12-31T20:24:23.680Z,77.09
2022-12-31T20:26:52.076Z,77.17
2022-12-31T20:29:20.664Z,76.84
2022-12-31T20:31:49.142Z,77.13
2022-12-31T20:34:17.621Z,77.10
2022-12-31T20:36:46.318Z,76.97
2022-12-31T20:39:14.903Z,77.15
2022-12-31T20:41:43.470Z,77.20
2022-12-31T20:44:11.951Z,77.31
2022-12-31T20:46:40.471Z,77.60
2022-12-31T20:49:10.782Z,77.29
2022-12-31T20:51:39.136Z,77.56
2022-12-31T20:54:10.173Z,77.43
2022-12-31T20:56:40.222Z,77.40
2022-12-31T20:59:09.826Z,77.51
2022-12-31T21:02:11.668Z,77.45
2022-12-31T21:04:27.728Z,77.41
2022-12-31T21:06:56.264Z,77.93
2022-12-31T21:09:24.819Z,77.28
2022-12-31T21:12:11.940Z,77.42
2022-12-31T21:14:44.727Z,77.18
2022-12-31T21:17:13.697Z,77.05
2022-12-31T21:19:42.132Z,76.85
2022-12-31T21:22:10.673Z,76.87
2022-12-31T21:24:39.464Z,76.69
2022-12-31T21:27:07.898Z,76.70
2022-12-31T21:29:55.685Z,76.64
2022-12-31T21:32:25.828Z,76.47
2022-12-31T21:35:23.168Z,76.56
2022-12-31T21:37:58.880Z,76.61
2022-12-31T21:40:30.478Z,77.09
2022-12-31T21:42:59.131Z,76.89
2022-12-31T21:45:27.675Z,76.75
2022-12-31T21:48:18.029Z,76.86
2022-12-31T21:50:48.785Z,76.86
2022-12-31T21:53:23.737Z,76.87
2022-12-31T21:56:09.229Z,76.66
2022-12-31T21:58:39.287Z,76.85
2022-12-31T22:01:29.546Z,76.82
2022-12-31T22:03:58.084Z,76.49
2022-12-31T22:06:27.074Z,76.77
2022-12-31T22:08:56.356Z,76.58
2022-12-31T22:11:26.832Z,76.04
2022-12-31T22:13:55.708Z,76.32
2022-12-31T22:16:24.289Z,76.03
2022-12-31T22:18:55.389Z,76.03
2022-12-31T22:21:24.919Z,75.99
2022-12-31T22:23:58.893Z,76.19
2022-12-31T22:26:29.293Z,76.18
2022-12-31T22:28:59.851Z,75.97
2022-12-31T22:31:30.647Z,76.20
2022-12-31T22:34:00.156Z,76.10
2022-12-31T22:36:28.686Z,76.05
2022-12-31T22:38:58.637Z,75.79
2022-12-31T22:41:28.145Z,76.25
2022-12-31T22:44:03.521Z,76.09
2022-12-31T22:46:33.862Z,75.60
2022-12-31T22:49:03.850Z,75.66
2022-12-31T22:51:56.021Z,75.20
2022-12-31T22:54:21.467Z,75.37
2022-12-31T22:56:50.014Z,75.02
2022-12-31T22:59:18.670Z,74.87
2022-12-31T23:01:47.731Z,75.24
2022-12-31T23:04:16.421Z,75.55
2022-12-31T23:06:44.961Z,75.36
2022-12-31T23:09:38.527Z,75.38
2022-12-31T23:12:08.398Z,75.38
2022-12-31T23:14:55.867Z,75.41
2022-12-31T23:17:46.088Z,75.41
2022-12-31T23:20:37.325Z,75.42
2022-12-31T23:23:10.078Z,75.64
2022-12-31T23:25:49.882Z,75.77
2022-12-31T23:28:25.691Z,76.04
2022-12-31T23:30:54.288Z,75.81
2022-12-31T23:33:25.424Z,75.77
2022-12-31T23:36:07.150Z,76.04
2022-12-31T23:38:35.681Z,76.20
2022-12-31T23:41:15.237Z,75.88
2022-12-31T23:43:44.264Z,76.36
2022-12-31T23:46:13.230Z,76.20
2022-12-31T23:48:41.964Z,76.32
2022-12-31T23:51:10.476Z,76.23
2022-12-31T23:53:39.376Z,76.84
2022-12-31T23:56:14.988Z,76.65
2022-12-31T23:58:46.332Z,76.66
